createdAt,value
2022-12-25T00:01:32.339Z,63.75
2022-12-25T00:03:59.532Z,64.15
2022-12-25T00:06:45.437Z,64.03
2022-12-25T00:09:12.358Z,50.90
2022-12-25T00:11:39.305Z,44.75
2022-12-25T00:14:06.323Z,42.70
2022-12-25T00:16:33.753Z,39.53
2022-12-25T00:19:01.583Z,35.90
2022-12-25T00:21:28.874Z,34.55
2022-12-25T00:23:58.478Z,32.58
2022-12-25T00:26:26.847Z,38.53
2022-12-25T00:28:55.760Z,32.60
2022-12-25T00:31:26.027Z,36.67
2022-12-25T00:33:53.359Z,37.00
2022-12-25T00:36:22.650Z,32.42
2022-12-25T00:38:49.711Z,39.50
2022-12-25T00:41:39.450Z,35.17
2022-12-25T00:44:25.107Z,32.95
2022-12-25T00:46:52.158Z,33.45
2022-12-25T00:49:19.617Z,34.47
2022-12-25T00:51:46.424Z,30.45
2022-12-25T00:54:13.458Z,27.98
2022-12-25T00:56:40.370Z,29.23
2022-12-25T00:59:07.205Z,29.75
2022-12-25T01:01:34.749Z,32.00
2022-12-25T01:04:02.232Z,31.90
2022-12-25T01:06:29.591Z,51.35
2022-12-25T01:09:15.414Z,72.03
2022-12-25T01:11:42.208Z,71.07
2022-12-25T01:14:09.238Z,73.13
2022-12-25T01:16:36.431Z,75.38
2022-12-25T01:19:03.706Z,64.13
2022-12-25T01:21:30.884Z,61.63
2022-12-25T01:23:58.406Z,52.15
2022-12-25T01:26:27.257Z,52.15
2022-12-25T01:28:54.331Z,49.15
2022-12-25T01:31:23.154Z,46.75
2022-12-25T01:33:50.441Z,41.17
2022-12-25T01:36:23.373Z,45.28
2022-12-25T01:38:51.521Z,42.03
2022-12-25T01:41:20.763Z,43.50
2022-12-25T01:44:29.285Z,42.45
2022-12-25T01:46:56.372Z,56.65
2022-12-25T01:49:26.124Z,55.05
2022-12-25T01:52:01.059Z,49.42
2022-12-25T01:54:33.610Z,46.58
2022-12-25T01:57:06.733Z,48.15
2022-12-25T01:59:33.735Z,48.00
2022-12-25T02:02:01.502Z,47.30
2022-12-25T02:04:39.414Z,46.10
2022-12-25T02:07:06.244Z,44.92
2022-12-25T02:09:33.375Z,46.90
2022-12-25T02:12:00.948Z,43.13
2022-12-25T02:14:32.559Z,43.35
2022-12-25T02:17:26.209Z,42.40
2022-12-25T02:20:17.606Z,46.60
2022-12-25T02:23:03.289Z,44.95
2022-12-25T02:25:39.143Z,43.10
2022-12-25T02:28:06.240Z,45.20
2022-12-25T02:30:40.960Z,44.65
2022-12-25T02:33:35.192Z,49.05
2022-12-25T02:36:07.462Z,52.42
2022-12-25T02:38:39.012Z,54.42
2022-12-25T02:41:15.226Z,46.92
2022-12-25T02:44:03.702Z,49.15
2022-12-25T02:46:51.716Z,43.40
2022-12-25T02:49:42.658Z,50.35
2022-12-25T02:52:31.777Z,42.65
2022-12-25T02:55:40.175Z,42.70
2022-12-25T02:58:35.125Z,44.20
2022-12-25T03:01:28.960Z,42.88
2022-12-25T03:04:18.951Z,41.40
2022-12-25T03:07:10.049Z,45.85
2022-12-25T03:10:24.304Z,46.30
2022-12-25T03:13:04.257Z,60.10
2022-12-25T03:15:51.789Z,61.00
2022-12-25T03:18:24.491Z,67.15
2022-12-25T03:21:10.841Z,63.20
2022-12-25T03:23:59.201Z,50.33
2022-12-25T03:26:46.202Z,52.53
2022-12-25T03:29:32.978Z,55.05
2022-12-25T03:32:42.078Z,50.67
2022-12-25T03:35:25.705Z,53.95
2022-12-25T03:38:19.592Z,53.65
2022-12-25T03:41:28.757Z,50.55
2022-12-25T03:44:42.407Z,51.33
2022-12-25T03:47:35.257Z,55.42
2022-12-25T03:50:36.420Z,54.60
2022-12-25T03:53:28.335Z,50.40
2022-12-25T03:56:15.070Z,46.08
2022-12-25T03:59:21.109Z,53.25
2022-12-25T04:02:09.552Z,46.35
2022-12-25T04:04:55.507Z,53.20
2022-12-25T04:07:41.064Z,64.63
2022-12-25T04:10:27.360Z,71.90
2022-12-25T04:13:12.981Z,73.70
2022-12-25T04:15:58.604Z,66.20
2022-12-25T04:18:43.792Z,58.03
2022-12-25T04:21:29.656Z,53.20
2022-12-25T04:24:15.196Z,50.28
2022-12-25T04:27:00.524Z,50.78
2022-12-25T04:29:46.018Z,54.47
2022-12-25T04:32:31.512Z,51.92
2022-12-25T04:35:17.164Z,49.85
2022-12-25T04:37:44.401Z,45.63
2022-12-25T04:40:11.515Z,49.40
2022-12-25T04:42:38.412Z,54.78
2022-12-25T04:45:05.694Z,50.53
2022-12-25T04:47:33.623Z,49.78
2022-12-25T04:50:00.477Z,49.15
2022-12-25T04:52:27.529Z,49.58
2022-12-25T04:54:54.537Z,54.00
2022-12-25T04:57:21.427Z,52.13
2022-12-25T04:59:48.308Z,50.03
2022-12-25T05:02:15.373Z,48.75
2022-12-25T05:04:42.367Z,47.88
2022-12-25T05:07:09.355Z,44.65
2022-12-25T05:09:36.257Z,41.85
2022-12-25T05:12:03.296Z,44.47
2022-12-25T05:14:31.573Z,43.72
2022-12-25T05:16:58.379Z,43.97
2022-12-25T05:19:25.604Z,43.58
2022-12-25T05:21:52.561Z,44.67
2022-12-25T05:24:20.055Z,39.38
2022-12-25T05:26:47.127Z,41.45
2022-12-25T05:29:14.328Z,42.88
2022-12-25T05:31:41.383Z,37.55
2022-12-25T05:34:08.371Z,41.42
2022-12-25T05:36:35.559Z,40.47
2022-12-25T05:39:02.396Z,44.92
2022-12-25T05:41:33.941Z,44.38
2022-12-25T05:44:01.512Z,41.13
2022-12-25T05:46:28.568Z,39.95
2022-12-25T05:48:55.650Z,43.33
2022-12-25T05:51:22.880Z,44.28
2022-12-25T05:53:49.680Z,41.65
2022-12-25T05:56:35.210Z,41.65
2022-12-25T05:59:02.080Z,43.17
2022-12-25T06:01:29.340Z,39.90
2022-12-25T06:03:56.947Z,45.97
2022-12-25T06:06:23.989Z,39.67
2022-12-25T06:08:53.191Z,42.50
2022-12-25T06:11:20.058Z,41.80
2022-12-25T06:13:50.911Z,46.13
2022-12-25T06:16:19.023Z,43.60
2022-12-25T06:18:49.087Z,40.13
2022-12-25T06:21:16.893Z,39.70
2022-12-25T06:23:44.554Z,41.03
2022-12-25T06:26:19.019Z,37.63
2022-12-25T06:28:46.572Z,41.92
2022-12-25T06:31:16.507Z,33.33
2022-12-25T06:33:43.572Z,38.88
2022-12-25T06:36:20.750Z,37.13
2022-12-25T06:38:48.205Z,38.67
2022-12-25T06:41:17.980Z,40.85
2022-12-25T06:43:49.557Z,40.00
2022-12-25T06:46:16.653Z,34.90
2022-12-25T06:48:49.342Z,39.60
2022-12-25T06:51:17.739Z,40.58
2022-12-25T06:53:44.797Z,51.70
2022-12-25T06:56:18.680Z,45.50
2022-12-25T06:58:47.797Z,44.40
2022-12-25T07:01:19.521Z,44.47
2022-12-25T07:03:49.837Z,47.05
2022-12-25T07:06:16.750Z,43.45
2022-12-25T07:08:43.554Z,43.10
2022-12-25T07:11:10.490Z,41.90
2022-12-25T07:13:37.398Z,38.00
2022-12-25T07:16:05.455Z,42.15
2022-12-25T07:18:32.566Z,39.42
2022-12-25T07:21:02.716Z,34.35
2022-12-25T07:23:29.510Z,38.35
2022-12-25T07:25:58.102Z,34.40
2022-12-25T07:28:25.466Z,34.97
2022-12-25T07:30:52.840Z,35.10
2022-12-25T07:33:19.851Z,30.05
2022-12-25T07:35:46.780Z,34.08
2022-12-25T07:38:13.746Z,39.05
2022-12-25T07:40:40.586Z,38.55
2022-12-25T07:43:07.467Z,39.08
2022-12-25T07:45:34.350Z,37.65
2022-12-25T07:48:05.196Z,38.50
2022-12-25T07:50:33.179Z,33.83
2022-12-25T07:53:00.142Z,33.90
2022-12-25T07:55:27.043Z,42.65
2022-12-25T07:57:53.902Z,43.45
2022-12-25T08:00:21.084Z,49.60
2022-12-25T08:02:51.168Z,65.80
2022-12-25T08:05:18.525Z,93.15
2022-12-25T08:07:53.840Z,71.68
2022-12-25T08:10:24.015Z,75.90
2022-12-25T08:12:52.356Z,76.10
2022-12-25T08:15:19.266Z,73.47
2022-12-25T08:17:46.509Z,57.42
2022-12-25T08:20:13.752Z,61.88
2022-12-25T08:22:40.689Z,55.63
2022-12-25T08:25:08.156Z,53.55
2022-12-25T08:27:35.893Z,52.33
2022-12-25T08:30:03.018Z,52.88
2022-12-25T08:32:33.660Z,56.42
2022-12-25T08:35:00.618Z,55.35
2022-12-25T08:37:30.077Z,57.33
2022-12-25T08:39:56.921Z,58.95
2022-12-25T08:42:23.827Z,53.33
2022-12-25T08:44:50.648Z,52.20
2022-12-25T08:47:17.568Z,50.38
2022-12-25T08:49:44.365Z,53.97
2022-12-25T08:52:11.317Z,60.28
2022-12-25T08:54:39.270Z,60.55
2022-12-25T08:57:06.099Z,69.70
2022-12-25T08:59:33.144Z,77.80
2022-12-25T09:02:00.286Z,76.65
2022-12-25T09:04:27.359Z,79.45
2022-12-25T09:06:54.198Z,83.38
2022-12-25T09:09:21.739Z,83.20
2022-12-25T09:11:49.540Z,82.68
2022-12-25T09:14:16.415Z,84.47
2022-12-25T09:16:43.277Z,104.00
2022-12-25T09:19:10.089Z,89.63
2022-12-25T09:21:36.977Z,88.30
2022-12-25T09:24:05.040Z,80.65
2022-12-25T09:26:31.794Z,87.85
2022-12-25T09:28:58.676Z,36.30
2022-12-25T09:31:25.604Z,60.17
2022-12-25T09:33:57.137Z,31.92
2022-12-25T09:36:25.091Z,12.68
2022-12-25T09:38:53.215Z,9.25
2022-12-25T09:41:35.665Z,11.85
2022-12-25T09:44:10.818Z,12.32
2022-12-25T09:46:51.279Z,12.55
2022-12-25T09:49:35.847Z,10.40
2022-12-25T09:52:12.768Z,14.18
2022-12-25T09:55:19.885Z,16.17
2022-12-25T09:57:52.934Z,15.27
2022-12-25T10:00:25.247Z,16.75
2022-12-25T10:03:08.068Z,17.33
2022-12-25T10:05:35.586Z,18.02
2022-12-25T10:08:50.696Z,19.27
2022-12-25T10:11:42.072Z,19.52
2022-12-25T10:14:30.147Z,15.70
2022-12-25T10:17:00.106Z,19.70
2022-12-25T10:19:39.259Z,17.80
2022-12-25T10:22:16.483Z,16.65
2022-12-25T10:24:49.078Z,13.93
2022-12-25T10:27:33.327Z,13.82
2022-12-25T10:30:01.590Z,14.43
2022-12-25T10:32:28.870Z,14.43
2022-12-25T10:34:55.980Z,14.20
2022-12-25T10:37:22.938Z,12.43
2022-12-25T10:39:49.938Z,14.43
2022-12-25T10:42:46.765Z,11.95
2022-12-25T10:45:13.767Z,13.03
2022-12-25T10:47:42.893Z,16.20
2022-12-25T10:50:20.138Z,11.88
2022-12-25T10:52:59.764Z,6.10
2022-12-25T10:55:29.345Z,12.52
2022-12-25T10:57:58.131Z,8.25
2022-12-25T11:00:31.315Z,5.63
2022-12-25T11:02:59.767Z,7.50
2022-12-25T11:05:30.232Z,7.03
2022-12-25T11:07:59.794Z,9.20
2022-12-25T11:10:32.292Z,24.48
2022-12-25T11:13:01.271Z,12.35
2022-12-25T11:15:42.045Z,17.15
2022-12-25T11:18:29.983Z,13.02
2022-12-25T11:20:59.752Z,11.57
2022-12-25T11:23:30.037Z,13.15
2022-12-25T11:26:02.709Z,8.52
2022-12-25T11:28:32.221Z,8.77
2022-12-25T11:31:08.586Z,11.88
2022-12-25T11:33:40.321Z,12.57
2022-12-25T11:36:20.402Z,9.30
2022-12-25T11:38:47.717Z,15.80
2022-12-25T11:41:20.928Z,10.40
2022-12-25T11:43:54.453Z,11.43
2022-12-25T11:46:31.603Z,11.20
2022-12-25T11:49:02.760Z,12.73
2022-12-25T11:51:37.235Z,7.38
2022-12-25T11:54:32.738Z,12.80
2022-12-25T11:57:04.952Z,16.70
2022-12-25T11:59:38.063Z,15.80
2022-12-25T12:02:37.394Z,11.10
2022-12-25T12:05:36.035Z,11.25
2022-12-25T12:08:06.270Z,10.43
2022-12-25T12:10:46.362Z,7.68
2022-12-25T12:13:45.592Z,14.50
2022-12-25T12:16:13.032Z,18.25
2022-12-25T12:18:48.140Z,16.48
2022-12-25T12:21:24.596Z,12.85
2022-12-25T12:24:06.325Z,11.60
2022-12-25T12:26:38.785Z,16.10
2022-12-25T12:29:08.784Z,36.92
2022-12-25T12:31:44.051Z,15.15
2022-12-25T12:34:25.720Z,16.25
2022-12-25T12:36:59.734Z,14.85
2022-12-25T12:39:37.038Z,12.85
2022-12-25T12:42:14.706Z,11.18
2022-12-25T12:44:42.110Z,9.73
2022-12-25T12:47:45.204Z,9.07
2022-12-25T12:50:36.121Z,9.35
2022-12-25T12:53:24.701Z,20.33
2022-12-25T12:55:53.384Z,17.75
2022-12-25T12:58:38.545Z,19.05
2022-12-25T13:01:38.598Z,32.78
2022-12-25T13:04:42.933Z,36.25
2022-12-25T13:07:13.053Z,23.88
2022-12-25T13:10:02.928Z,20.33
2022-12-25T13:12:30.457Z,22.15
2022-12-25T13:14:58.611Z,21.42
2022-12-25T13:17:27.903Z,26.70
2022-12-25T13:19:59.953Z,33.53
2022-12-25T13:22:36.813Z,33.13
2022-12-25T13:25:15.032Z,31.35
2022-12-25T13:27:42.091Z,29.13
2022-12-25T13:30:14.557Z,25.98
2022-12-25T13:32:43.181Z,25.17
2022-12-25T13:35:15.405Z,26.20
2022-12-25T13:37:43.421Z,22.20
2022-12-25T13:40:28.263Z,26.77
2022-12-25T13:43:01.983Z,32.67
2022-12-25T13:45:31.059Z,28.70
2022-12-25T13:47:58.775Z,32.55
2022-12-25T13:50:34.124Z,27.45
2022-12-25T13:53:16.863Z,27.77
2022-12-25T13:55:50.351Z,34.65
2022-12-25T13:58:29.576Z,32.55
2022-12-25T14:01:01.037Z,33.13
2022-12-25T14:03:41.350Z,34.58
2022-12-25T14:06:31.483Z,35.05
2022-12-25T14:08:59.773Z,33.75
2022-12-25T14:11:30.287Z,35.78
2022-12-25T14:14:00.212Z,41.58
2022-12-25T14:16:27.999Z,44.40
2022-12-25T14:19:00.970Z,44.38
2022-12-25T14:21:35.232Z,44.15
2022-12-25T14:24:02.544Z,48.03
2022-12-25T14:26:33.936Z,43.65
2022-12-25T14:29:15.627Z,39.47
2022-12-25T14:31:47.275Z,42.75
2022-12-25T14:34:25.315Z,37.38
2022-12-25T14:36:53.424Z,33.58
2022-12-25T14:39:41.079Z,39.05
2022-12-25T14:42:29.917Z,46.67
2022-12-25T14:45:24.965Z,48.38
2022-12-25T14:47:54.116Z,44.90
2022-12-25T14:50:29.179Z,41.72
2022-12-25T14:52:56.808Z,44.95
2022-12-25T14:55:27.678Z,47.83
2022-12-25T14:57:59.008Z,46.08
2022-12-25T15:00:39.540Z,42.10
2022-12-25T15:03:26.581Z,53.13
2022-12-25T15:08:30.491Z,50.40
2022-12-25T15:11:00.942Z,47.70
2022-12-25T15:13:30.841Z,47.38
2022-12-25T15:16:12.809Z,39.50
2022-12-25T15:18:42.218Z,40.72
2022-12-25T15:21:38.787Z,39.42
2022-12-25T15:24:06.057Z,42.97
2022-12-25T15:26:33.466Z,43.03
2022-12-25T15:29:00.468Z,44.78
2022-12-25T15:31:32.059Z,43.38
2022-12-25T15:34:03.320Z,48.72
2022-12-25T15:36:30.955Z,47.92
2022-12-25T15:38:59.548Z,37.85
2022-12-25T15:41:53.842Z,38.70
2022-12-25T15:44:21.233Z,48.75
2022-12-25T15:46:48.230Z,39.72
2022-12-25T15:49:16.176Z,37.50
2022-12-25T15:51:43.977Z,41.85
2022-12-25T15:54:11.323Z,41.58
2022-12-25T15:56:44.945Z,38.90
2022-12-25T15:59:13.699Z,32.70
2022-12-25T16:01:47.655Z,43.15
2022-12-25T16:04:14.631Z,35.90
2022-12-25T16:06:42.300Z,41.05
2022-12-25T16:09:14.682Z,41.83
2022-12-25T16:11:41.627Z,36.05
2022-12-25T16:14:09.076Z,36.13
2022-12-25T16:16:36.260Z,38.92
2022-12-25T16:19:03.452Z,36.10
2022-12-25T16:21:39.956Z,40.08
2022-12-25T16:29:06.988Z,41.65
2022-12-25T16:31:35.301Z,40.45
2022-12-25T16:34:02.329Z,37.88
2022-12-25T16:36:29.216Z,44.75
2022-12-25T16:38:56.146Z,45.85
2022-12-25T16:41:23.138Z,40.78
2022-12-25T16:43:50.147Z,38.25
2022-12-25T16:46:20.022Z,38.13
2022-12-25T16:48:46.960Z,66.57
2022-12-25T16:51:19.993Z,59.47
2022-12-25T16:53:47.346Z,59.33
2022-12-25T16:56:17.565Z,50.78
2022-12-25T16:58:48.482Z,65.07
2022-12-25T17:01:17.978Z,55.85
2022-12-25T17:03:45.469Z,63.70
2022-12-25T17:06:23.338Z,61.40
2022-12-25T17:08:52.224Z,66.35
2022-12-25T17:11:23.655Z,67.63
2022-12-25T17:13:50.791Z,69.75
2022-12-25T17:16:26.993Z,68.65
2022-12-25T17:19:20.905Z,83.63
2022-12-25T17:21:47.853Z,78.53
2022-12-25T17:24:15.306Z,79.07
2022-12-25T17:26:43.945Z,85.93
2022-12-25T17:29:14.734Z,85.72
2022-12-25T17:31:45.645Z,100.10
2022-12-25T17:34:12.756Z,117.40
2022-12-25T17:36:40.117Z,128.68
2022-12-25T17:39:06.997Z,150.80
2022-12-25T17:41:34.234Z,137.25
2022-12-25T17:44:01.304Z,147.10
2022-12-25T17:46:30.550Z,159.57
2022-12-25T17:48:59.780Z,162.75
2022-12-25T17:51:28.637Z,175.30
2022-12-25T17:53:59.229Z,162.25
2022-12-25T17:56:27.133Z,170.88
2022-12-25T17:58:57.550Z,174.73
2022-12-25T18:01:26.442Z,165.75
2022-12-25T18:03:54.203Z,159.48
2022-12-25T18:06:24.854Z,165.75
2022-12-25T18:08:52.178Z,165.82
2022-12-25T18:11:22.072Z,171.32
2022-12-25T18:13:52.256Z,165.77
2022-12-25T18:16:23.241Z,160.82
2022-12-25T18:18:52.481Z,148.50
2022-12-25T18:21:22.307Z,157.80
2022-12-25T18:23:49.970Z,146.88
2022-12-25T18:26:17.332Z,155.13
2022-12-25T18:28:44.323Z,148.07
2022-12-25T18:31:17.083Z,136.32
2022-12-25T18:33:44.844Z,148.70
2022-12-25T18:36:17.550Z,160.88
2022-12-25T18:38:44.582Z,175.38
2022-12-25T18:41:12.107Z,181.55
2022-12-25T18:43:54.011Z,187.85
2022-12-25T18:46:27.741Z,197.10
2022-12-25T18:48:56.707Z,214.95
2022-12-25T18:51:23.961Z,200.82
2022-12-25T18:53:51.495Z,205.45
2022-12-25T18:56:18.944Z,197.07
2022-12-25T18:58:47.288Z,205.80
2022-12-25T19:01:20.263Z,222.32
2022-12-25T19:03:49.508Z,212.05
2022-12-25T19:06:18.246Z,206.23
2022-12-25T19:08:45.441Z,202.93
2022-12-25T19:11:12.536Z,212.05
2022-12-25T19:13:39.463Z,210.60
2022-12-25T19:16:06.711Z,222.02
2022-12-25T19:18:33.907Z,195.43
2022-12-25T19:21:05.692Z,206.98
2022-12-25T19:23:33.207Z,224.00
2022-12-25T19:26:00.268Z,239.38
2022-12-25T19:28:27.179Z,214.40
2022-12-25T19:30:54.574Z,217.73
2022-12-25T19:33:22.414Z,196.70
2022-12-25T19:35:50.046Z,187.85
2022-12-25T19:38:17.242Z,158.85
2022-12-25T19:41:00.837Z,142.02
2022-12-25T19:43:33.918Z,110.88
2022-12-25T19:46:02.255Z,120.60
2022-12-25T19:48:30.656Z,123.82
2022-12-25T19:50:58.000Z,115.95
2022-12-25T19:53:25.220Z,131.57
2022-12-25T19:55:53.737Z,146.77
2022-12-25T19:58:22.578Z,132.05
2022-12-25T20:01:05.287Z,140.75
2022-12-25T20:03:34.471Z,155.27
2022-12-25T20:06:26.491Z,159.60
2022-12-25T20:09:01.747Z,149.65
2022-12-25T20:11:30.297Z,156.68
2022-12-25T20:13:58.012Z,156.77
2022-12-25T20:16:25.974Z,163.52
2022-12-25T20:18:53.619Z,175.95
2022-12-25T20:21:22.798Z,156.50
2022-12-25T20:23:52.581Z,162.55
2022-12-25T20:26:23.061Z,168.90
2022-12-25T20:28:50.699Z,160.02
2022-12-25T20:31:24.247Z,158.60
2022-12-25T20:33:51.296Z,158.65
2022-12-25T20:36:19.164Z,155.43
2022-12-25T20:38:46.049Z,170.88
2022-12-25T20:41:31.697Z,171.82
2022-12-25T20:43:58.824Z,169.23
2022-12-25T20:46:26.947Z,176.85
2022-12-25T20:48:54.100Z,167.15
2022-12-25T20:51:42.296Z,166.80
2022-12-25T20:54:10.631Z,148.80
2022-12-25T20:56:37.667Z,151.48
2022-12-25T20:59:04.681Z,156.38
2022-12-25T21:01:31.961Z,159.90
2022-12-25T21:03:59.721Z,151.25
2022-12-25T21:06:26.889Z,145.93
2022-12-25T21:08:54.176Z,148.43
2022-12-25T21:11:21.646Z,140.80
2022-12-25T21:13:49.009Z,133.77
2022-12-25T21:16:20.274Z,134.63
2022-12-25T21:18:48.506Z,126.13
2022-12-25T21:21:16.457Z,128.73
2022-12-25T21:23:43.638Z,132.43
2022-12-25T21:26:19.408Z,124.32
2022-12-25T21:28:48.131Z,161.93
2022-12-25T21:31:15.286Z,146.65
2022-12-25T21:33:55.497Z,165.48
2022-12-25T21:36:28.862Z,147.52
2022-12-25T21:39:05.225Z,150.40
2022-12-25T21:41:33.078Z,146.70
2022-12-25T21:44:00.649Z,138.43
2022-12-25T21:46:32.597Z,122.68
2022-12-25T21:49:00.171Z,147.82
2022-12-25T21:51:49.635Z,154.75
2022-12-25T21:54:18.901Z,139.68
2022-12-25T21:56:47.603Z,132.25
2022-12-25T21:59:21.126Z,137.02
2022-12-25T22:01:49.045Z,146.57
2022-12-25T22:04:17.951Z,141.90
2022-12-25T22:07:04.546Z,148.48
2022-12-25T22:09:33.341Z,137.82
2022-12-25T22:12:19.134Z,103.35
2022-12-25T22:14:55.766Z,108.30
2022-12-25T22:17:57.659Z,97.25
2022-12-25T22:20:26.151Z,111.90
2022-12-25T22:22:54.065Z,107.03
2022-12-25T22:25:21.822Z,104.28
2022-12-25T22:27:49.680Z,106.40
2022-12-25T22:30:22.878Z,92.10
2022-12-25T22:32:51.074Z,99.97
2022-12-25T22:35:19.197Z,93.53
2022-12-25T22:37:46.847Z,91.22
2022-12-25T22:40:17.527Z,86.65
2022-12-25T22:42:44.760Z,87.22
2022-12-25T22:45:12.510Z,81.50
2022-12-25T22:47:40.203Z,78.88
2022-12-25T22:50:08.778Z,73.82
2022-12-25T22:52:36.793Z,70.93
2022-12-25T22:55:05.059Z,63.47
2022-12-25T22:57:52.378Z,57.30
2022-12-25T23:00:19.419Z,57.22
2022-12-25T23:02:46.714Z,81.47
2022-12-25T23:05:16.540Z,102.35
2022-12-25T23:07:43.791Z,116.15
2022-12-25T23:10:10.976Z,114.68
2022-12-25T23:12:56.388Z,110.57
2022-12-25T23:15:23.325Z,105.97
2022-12-25T23:18:08.998Z,100.50
2022-12-25T23:20:55.186Z,94.80
2022-12-25T23:23:41.077Z,98.10
2022-12-25T23:26:08.048Z,87.65
2022-12-25T23:28:58.385Z,87.75
2022-12-25T23:31:30.446Z,93.10
2022-12-25T23:33:57.864Z,86.40
2022-12-25T23:36:25.211Z,86.55
2022-12-25T23:38:52.146Z,72.22
2022-12-25T23:41:19.416Z,67.03
2022-12-25T23:43:46.507Z,64.40
2022-12-25T23:46:13.714Z,61.50
2022-12-25T23:48:40.758Z,65.95
2022-12-25T23:51:08.323Z,61.13
2022-12-25T23:53:35.574Z,60.42
2022-12-25T23:56:03.401Z,59.72
2022-12-25T23:58:32.564Z,66.93
